createdAt,value
2017-10-28T00:01:21.849Z,80.90
2017-10-28T00:04:23.347Z,81.00
2017-10-28T00:07:24.845Z,81.40
2017-10-28T00:10:26.417Z,81.20
2017-10-28T00:13:27.890Z,81.50
2017-10-28T00:16:30.152Z,81.90
2017-10-28T00:19:32.435Z,81.90
2017-10-28T00:22:33.986Z,81.80
2017-10-28T00:25:36.216Z,82.20
2017-10-28T00:28:37.735Z,82.10
2017-10-28T00:31:45.509Z,82.00
2017-10-28T00:34:53.930Z,83.00
2017-10-28T00:37:56.236Z,82.80
2017-10-28T00:40:57.960Z,82.80
2017-10-28T00:43:59.608Z,82.90
2017-10-28T00:47:01.865Z,83.90
2017-10-28T00:50:03.407Z,83.50
2017-10-28T00:53:04.910Z,84.10
2017-10-28T00:56:06.386Z,84.30
2017-10-28T00:59:07.955Z,84.10
2017-10-28T01:02:09.530Z,83.90
2017-10-28T01:05:11.767Z,84.60
2017-10-28T01:08:13.773Z,84.40
2017-10-28T01:11:16.644Z,85.60
2017-10-28T01:14:19.435Z,85.50
2017-10-28T01:17:22.690Z,84.90
2017-10-28T01:20:25.129Z,85.80
2017-10-28T01:23:27.351Z,85.30
2017-10-28T01:26:29.448Z,85.20
2017-10-28T01:29:32.025Z,85.50
2017-10-28T01:32:34.966Z,85.70
2017-10-28T01:35:36.981Z,85.70
2017-10-28T01:38:39.950Z,85.10
2017-10-28T01:41:43.093Z,85.00
2017-10-28T01:44:45.089Z,85.50
2017-10-28T01:47:47.098Z,85.40
2017-10-28T01:50:49.906Z,84.20
2017-10-28T01:53:51.915Z,84.10
2017-10-28T01:56:54.008Z,84.60
2017-10-28T01:59:55.547Z,84.30
2017-10-28T02:02:57.080Z,84.50
2017-10-28T02:05:58.627Z,84.50
2017-10-28T02:09:00.235Z,84.70
2017-10-28T02:12:01.728Z,84.60
2017-10-28T02:15:03.303Z,84.90
2017-10-28T02:18:04.790Z,84.40
2017-10-28T02:21:06.375Z,84.10
2017-10-28T02:24:08.667Z,84.70
2017-10-28T02:27:10.245Z,84.60
2017-10-28T02:30:11.724Z,84.20
2017-10-28T02:33:13.238Z,83.60
2017-10-28T02:36:14.744Z,84.00
2017-10-28T02:39:16.258Z,84.70
2017-10-28T02:42:17.866Z,84.50
2017-10-28T02:45:20.079Z,83.90
2017-10-28T02:48:21.570Z,83.80
2017-10-28T02:51:23.160Z,84.00
2017-10-28T02:54:25.425Z,84.10
2017-10-28T02:57:26.969Z,83.90
2017-10-28T03:00:29.385Z,84.30
2017-10-28T03:03:30.941Z,84.20
2017-10-28T03:06:32.484Z,84.10
2017-10-28T03:09:33.969Z,83.70
2017-10-28T03:12:35.471Z,83.80
2017-10-28T03:15:37.738Z,83.60
2017-10-28T03:18:39.957Z,83.40
2017-10-28T03:21:41.500Z,83.40
2017-10-28T03:24:43.052Z,83.20
2017-10-28T03:27:44.576Z,82.80
2017-10-28T03:30:46.909Z,82.90
2017-10-28T03:33:48.451Z,82.60
2017-10-28T03:36:50.001Z,82.90
2017-10-28T03:39:52.288Z,82.00
2017-10-28T03:42:53.828Z,81.90
2017-10-28T03:45:56.119Z,82.40
2017-10-28T03:48:57.740Z,82.30
2017-10-28T03:51:59.197Z,82.60
2017-10-28T03:55:00.658Z,82.50
2017-10-28T03:58:02.156Z,82.10
2017-10-28T04:01:03.671Z,82.30
2017-10-28T04:04:05.200Z,82.50
2017-10-28T04:07:06.700Z,82.70
2017-10-28T04:10:09.180Z,82.50
2017-10-28T04:13:10.637Z,83.00
2017-10-28T04:16:12.146Z,82.50
2017-10-28T04:19:13.701Z,82.50
2017-10-28T04:22:15.204Z,82.40
2017-10-28T04:25:16.705Z,82.20
2017-10-28T04:28:18.219Z,82.30
2017-10-28T04:31:19.730Z,82.40
2017-10-28T04:34:21.251Z,82.70
2017-10-28T04:37:23.541Z,82.60
2017-10-28T04:40:25.068Z,82.60
2017-10-28T04:43:27.303Z,83.00
2017-10-28T04:46:29.224Z,82.80
2017-10-28T04:49:30.732Z,82.60
2017-10-28T04:52:32.338Z,83.10
2017-10-28T04:55:33.829Z,83.40
2017-10-28T04:58:35.370Z,83.20
2017-10-28T05:01:36.909Z,83.20
2017-10-28T05:04:39.260Z,83.30
2017-10-28T05:07:40.808Z,83.50
2017-10-28T05:10:43.120Z,83.80
2017-10-28T05:13:44.732Z,83.60
2017-10-28T05:16:46.253Z,83.30
2017-10-28T05:19:47.810Z,83.20
2017-10-28T05:22:49.291Z,83.20
2017-10-28T05:25:51.610Z,83.40
2017-10-28T05:28:53.139Z,83.30
2017-10-28T05:35:03.538Z,83.10
2017-10-28T05:38:05.817Z,82.90
2017-10-28T05:41:07.376Z,82.80
2017-10-28T05:44:08.884Z,83.00
2017-10-28T05:47:11.220Z,83.30
2017-10-28T05:50:12.806Z,83.10
2017-10-28T05:53:15.109Z,83.20
2017-10-28T05:56:16.628Z,83.00
2017-10-28T05:59:18.872Z,84.10
2017-10-28T06:02:20.435Z,83.50
2017-10-28T06:05:22.063Z,83.60
2017-10-28T06:08:23.628Z,83.50
2017-10-28T06:11:25.182Z,83.90
2017-10-28T06:14:26.706Z,83.50
2017-10-28T06:17:28.194Z,83.30
2017-10-28T06:20:29.749Z,83.90
2017-10-28T06:23:31.304Z,83.80
2017-10-28T06:26:32.771Z,83.80
2017-10-28T06:29:34.305Z,83.80
2017-10-28T06:32:35.813Z,84.20
2017-10-28T06:35:37.394Z,84.10
2017-10-28T06:38:38.866Z,84.10
2017-10-28T06:41:40.363Z,84.20
2017-10-28T06:44:42.714Z,83.80
2017-10-28T06:47:44.252Z,83.80
2017-10-28T06:50:46.006Z,83.50
2017-10-28T06:53:47.521Z,83.50
2017-10-28T06:56:49.094Z,83.20
2017-10-28T06:59:50.667Z,83.20
2017-10-28T07:02:52.228Z,83.30
2017-10-28T07:05:53.804Z,83.60
2017-10-28T07:08:56.184Z,83.30
2017-10-28T07:11:57.854Z,83.30
2017-10-28T07:14:59.397Z,83.00
2017-10-28T07:18:01.068Z,82.80
2017-10-28T07:21:03.403Z,82.70
2017-10-28T07:24:04.933Z,82.60
2017-10-28T07:27:06.571Z,82.60
2017-10-28T07:30:08.151Z,82.80
2017-10-28T07:33:10.644Z,83.10
2017-10-28T07:36:12.223Z,82.60
2017-10-28T07:39:14.499Z,82.70
2017-10-28T07:42:16.050Z,82.60
2017-10-28T07:45:17.505Z,82.60
2017-10-28T07:48:19.790Z,82.40
2017-10-28T07:51:22.024Z,83.10
2017-10-28T07:54:23.529Z,82.80
2017-10-28T07:57:25.123Z,82.40
2017-10-28T08:00:27.396Z,82.80
2017-10-28T08:03:28.929Z,82.50
2017-10-28T08:06:30.395Z,82.00
2017-10-28T08:09:32.040Z,82.00
2017-10-28T08:12:33.529Z,82.20
2017-10-28T08:15:35.102Z,81.90
2017-10-28T08:18:36.664Z,81.70
2017-10-28T08:21:38.961Z,82.00
2017-10-28T08:24:40.578Z,81.90
2017-10-28T08:27:42.932Z,82.30
2017-10-28T08:30:44.524Z,82.10
2017-10-28T08:33:46.856Z,82.00
2017-10-28T08:36:48.423Z,81.90
2017-10-28T08:39:49.953Z,81.90
2017-10-28T08:42:51.504Z,82.20
2017-10-28T08:45:53.133Z,81.90
2017-10-28T08:48:55.468Z,82.30
2017-10-28T08:51:57.081Z,82.00
2017-10-28T08:54:58.603Z,81.70
2017-10-28T08:58:00.911Z,81.70
2017-10-28T09:01:02.560Z,81.40
2017-10-28T09:04:04.894Z,81.50
2017-10-28T09:07:06.488Z,81.30
2017-10-28T09:10:08.039Z,81.40
2017-10-28T09:13:09.505Z,81.60
2017-10-28T09:16:11.209Z,81.50
2017-10-28T09:19:13.178Z,80.80
2017-10-28T09:22:15.185Z,81.40
2017-10-28T09:25:59.131Z,81.30
2017-10-28T09:29:07.044Z,81.20
2017-10-28T09:32:08.991Z,81.40
2017-10-28T09:35:10.963Z,81.00
2017-10-28T09:38:13.117Z,80.90
2017-10-28T09:41:14.746Z,80.90
2017-10-28T09:44:16.335Z,81.30
2017-10-28T09:47:18.588Z,81.30
2017-10-28T09:50:20.188Z,80.90
2017-10-28T09:53:21.753Z,81.40
2017-10-28T09:56:23.268Z,81.10
2017-10-28T09:59:25.563Z,81.70
2017-10-28T10:02:27.122Z,81.60
2017-10-28T10:05:28.765Z,81.40
2017-10-28T10:08:31.029Z,81.30
2017-10-28T10:11:33.381Z,81.30
2017-10-28T10:14:34.921Z,81.30
2017-10-28T10:17:36.481Z,81.00
2017-10-28T10:20:38.065Z,81.40
2017-10-28T10:23:40.338Z,81.30
2017-10-28T10:26:42.652Z,81.50
2017-10-28T10:29:44.236Z,81.40
2017-10-28T10:32:45.739Z,81.40
2017-10-28T10:35:47.356Z,81.00
2017-10-28T10:38:49.679Z,81.30
2017-10-28T10:41:51.321Z,81.20
2017-10-28T10:44:52.857Z,81.30
2017-10-28T10:47:55.161Z,81.50
2017-10-28T10:50:56.674Z,81.10
2017-10-28T10:53:58.299Z,81.30
2017-10-28T10:56:59.844Z,81.40
2017-10-28T11:00:01.409Z,81.20
2017-10-28T11:03:03.122Z,81.20
2017-10-28T11:06:05.397Z,81.20
2017-10-28T11:09:07.739Z,81.00
2017-10-28T11:12:09.338Z,81.00
2017-10-28T11:15:10.861Z,80.40
2017-10-28T11:18:13.106Z,80.60
2017-10-28T11:21:14.641Z,80.50
2017-10-28T11:24:17.064Z,80.50
2017-10-28T11:27:19.443Z,80.60
2017-10-28T11:30:21.209Z,80.40
2017-10-28T11:33:22.737Z,80.20
2017-10-28T11:36:25.038Z,80.20
2017-10-28T11:39:27.383Z,81.10
2017-10-28T11:42:29.713Z,81.30
2017-10-28T11:45:31.249Z,81.90
2017-10-28T11:48:32.763Z,80.60
2017-10-28T11:51:34.374Z,81.10
2017-10-28T11:54:35.934Z,81.00
2017-10-28T11:57:37.546Z,81.20
2017-10-28T12:00:39.836Z,81.60
2017-10-28T12:03:42.145Z,81.50
2017-10-28T12:06:43.710Z,81.30
2017-10-28T12:09:45.333Z,81.20
2017-10-28T12:12:46.849Z,81.40
2017-10-28T12:15:48.381Z,81.30
2017-10-28T12:18:49.986Z,81.30
2017-10-28T12:21:51.557Z,81.20
2017-10-28T12:24:53.150Z,81.30
2017-10-28T12:27:54.792Z,81.20
2017-10-28T12:30:56.347Z,81.50
2017-10-28T12:33:58.099Z,81.20
2017-10-28T12:36:59.616Z,81.10
2017-10-28T12:40:01.205Z,81.50
2017-10-28T12:43:02.695Z,81.40
2017-10-28T12:46:04.232Z,81.40
2017-10-28T12:49:05.843Z,81.30
2017-10-28T12:52:07.429Z,81.20
2017-10-28T12:55:08.957Z,80.90
2017-10-28T12:58:10.531Z,80.90
2017-10-28T13:01:12.141Z,80.80
2017-10-28T13:04:14.436Z,81.20
2017-10-28T13:07:16.009Z,81.10
2017-10-28T13:10:17.568Z,81.30
2017-10-28T13:13:19.143Z,81.50
2017-10-28T13:16:20.652Z,81.60
2017-10-28T13:19:22.964Z,81.60
2017-10-28T13:22:24.565Z,81.40
2017-10-28T13:25:26.154Z,81.70
2017-10-28T13:28:27.771Z,81.50
2017-10-28T13:31:29.363Z,82.30
2017-10-28T13:34:30.916Z,82.40
2017-10-28T13:37:32.493Z,78.10
2017-10-28T13:40:34.218Z,79.10
2017-10-28T13:43:37.041Z,81.00
2017-10-28T13:46:39.087Z,80.90
2017-10-28T13:49:41.380Z,81.40
2017-10-28T13:52:44.105Z,81.70
2017-10-28T13:55:47.119Z,81.80
2017-10-28T13:58:48.730Z,81.70
2017-10-28T14:01:50.433Z,81.60
2017-10-28T14:04:52.309Z,81.70
2017-10-28T14:07:54.136Z,81.70
2017-10-28T14:10:56.472Z,81.90
2017-10-28T14:13:58.050Z,81.70
2017-10-28T14:17:00.093Z,81.80
2017-10-28T14:20:01.879Z,81.90
2017-10-28T14:23:03.495Z,81.90
2017-10-28T14:26:05.362Z,82.10
2017-10-28T14:29:08.695Z,81.70
2017-10-28T14:32:11.490Z,82.00
2017-10-28T14:35:18.058Z,82.30
2017-10-28T14:38:20.550Z,82.70
2017-10-28T14:41:22.162Z,82.10
2017-10-28T14:44:24.314Z,82.20
2017-10-28T14:47:26.738Z,82.50
2017-10-28T14:50:32.390Z,82.30
2017-10-28T14:53:34.478Z,82.20
2017-10-28T14:56:37.238Z,82.10
2017-10-28T14:59:41.375Z,83.40
2017-10-28T15:02:42.940Z,83.30
2017-10-28T15:05:44.739Z,83.40
2017-10-28T15:08:59.812Z,83.60
2017-10-28T15:16:05.017Z,84.30
2017-10-28T15:19:07.239Z,84.40
2017-10-28T15:22:10.084Z,84.90
2017-10-28T15:25:14.083Z,85.40
2017-10-28T15:28:16.473Z,86.00
2017-10-28T15:31:18.110Z,85.70
2017-10-28T15:34:19.864Z,86.40
2017-10-28T15:37:21.591Z,87.00
2017-10-28T15:40:23.337Z,88.10
2017-10-28T15:43:24.886Z,88.50
2017-10-28T15:46:26.440Z,89.00
2017-10-28T15:58:04.069Z,90.10
2017-10-28T16:01:05.991Z,90.30
2017-10-28T16:04:08.997Z,90.70
2017-10-28T16:10:19.553Z,90.80
2017-10-28T16:13:21.147Z,90.70
2017-10-28T16:16:22.653Z,90.80
2017-10-28T16:19:24.328Z,91.00
2017-10-28T16:22:25.905Z,91.20
2017-10-28T16:25:28.142Z,91.00
2017-10-28T16:28:29.690Z,91.20
2017-10-28T16:31:31.299Z,91.30
2017-10-28T16:34:32.837Z,91.30
2017-10-28T16:37:34.313Z,91.50
2017-10-28T16:40:35.908Z,91.60
2017-10-28T16:43:38.160Z,91.90
2017-10-28T16:46:39.711Z,91.80
2017-10-28T16:49:41.268Z,91.90
2017-10-28T16:52:42.846Z,92.00
2017-10-28T16:55:44.360Z,91.90
2017-10-28T16:58:45.903Z,92.10
2017-10-28T17:01:47.553Z,92.20
2017-10-28T17:04:49.119Z,92.20
2017-10-28T17:07:50.694Z,92.30
2017-10-28T17:10:52.638Z,92.40
2017-10-28T17:13:54.272Z,92.50
2017-10-28T17:16:55.941Z,92.50
2017-10-28T17:19:57.594Z,92.20
2017-10-28T17:22:59.208Z,92.30
2017-10-28T17:26:01.602Z,92.50
2017-10-28T17:29:03.271Z,92.40
2017-10-28T17:32:04.877Z,92.60
2017-10-28T17:35:06.466Z,92.60
2017-10-28T17:38:08.823Z,92.70
2017-10-28T17:41:11.143Z,92.80
2017-10-28T17:44:12.744Z,92.70
2017-10-28T17:47:14.324Z,92.70
2017-10-28T17:50:17.129Z,92.90
2017-10-28T17:53:18.709Z,92.90
2017-10-28T17:56:20.298Z,92.90
2017-10-28T17:59:22.629Z,93.10
2017-10-28T18:02:24.264Z,93.00
2017-10-28T18:05:25.862Z,93.10
2017-10-28T18:08:27.457Z,93.00
2017-10-28T18:11:29.121Z,93.20
2017-10-28T18:14:30.754Z,93.10
2017-10-28T18:17:32.449Z,93.30
2017-10-28T18:20:34.025Z,93.30
2017-10-28T18:23:35.663Z,93.30
2017-10-28T18:26:37.235Z,93.40
2017-10-28T18:29:39.092Z,93.50
2017-10-28T18:32:40.669Z,93.50
2017-10-28T18:35:43.105Z,93.70
2017-10-28T18:38:44.630Z,93.70
2017-10-28T18:41:46.153Z,93.80
2017-10-28T18:44:47.710Z,93.90
2017-10-28T18:47:49.231Z,93.80
2017-10-28T18:50:50.848Z,93.80
2017-10-28T18:53:53.130Z,94.10
2017-10-28T18:56:54.680Z,94.10
2017-10-28T18:59:56.215Z,94.10
2017-10-28T19:02:57.760Z,94.10
2017-10-28T19:05:59.280Z,94.30
2017-10-28T19:09:00.917Z,94.30
2017-10-28T19:12:03.257Z,94.50
2017-10-28T19:15:04.840Z,94.50
2017-10-28T19:18:06.347Z,94.40
2017-10-28T19:21:07.877Z,94.50
2017-10-28T19:24:09.400Z,94.60
2017-10-28T19:27:11.703Z,94.70
2017-10-28T19:30:13.265Z,94.70
2017-10-28T19:33:14.823Z,94.70
2017-10-28T19:36:16.419Z,94.80
2017-10-28T19:39:18.122Z,94.90
2017-10-28T19:42:19.640Z,94.90
2017-10-28T19:45:21.973Z,95.00
2017-10-28T19:48:23.509Z,95.00
2017-10-28T19:51:25.086Z,95.00
2017-10-28T19:54:26.618Z,95.00
2017-10-28T19:57:28.241Z,95.10
2017-10-28T20:00:30.536Z,95.30
2017-10-28T20:03:32.776Z,95.50
2017-10-28T20:06:35.064Z,95.60
2017-10-28T20:09:36.668Z,95.30
2017-10-28T20:12:38.243Z,95.50
2017-10-28T20:15:40.526Z,95.40
2017-10-28T20:18:42.899Z,95.50
2017-10-28T20:21:44.476Z,95.40
2017-10-28T20:24:46.808Z,95.40
2017-10-28T20:27:48.431Z,95.30
2017-10-28T20:30:50.056Z,95.30
2017-10-28T20:33:52.328Z,95.50
2017-10-28T20:36:54.767Z,95.40
2017-10-28T20:39:56.464Z,95.40
2017-10-28T20:42:58.775Z,95.60
2017-10-28T20:46:00.296Z,95.50
2017-10-28T20:49:02.744Z,95.60
2017-10-28T20:52:04.273Z,95.60
2017-10-28T20:55:05.933Z,95.70
2017-10-28T20:58:07.463Z,95.70
2017-10-28T21:01:09.051Z,95.70
2017-10-28T21:04:10.594Z,95.80
2017-10-28T21:07:12.149Z,95.80
2017-10-28T21:10:13.697Z,95.90
2017-10-28T21:13:15.360Z,95.90
2017-10-28T21:16:16.881Z,95.90
2017-10-28T21:19:19.193Z,96.10
2017-10-28T21:22:20.787Z,96.00
2017-10-28T21:25:22.385Z,96.10
2017-10-28T21:28:23.980Z,96.10
2017-10-28T21:31:25.561Z,96.10
2017-10-28T21:34:27.971Z,96.30
2017-10-28T21:37:29.509Z,96.30
2017-10-28T21:40:31.142Z,96.30
2017-10-28T21:43:33.440Z,96.30
2017-10-28T21:46:34.981Z,96.20
2017-10-28T21:49:37.348Z,96.30
2017-10-28T21:52:39.673Z,96.30
2017-10-28T21:55:41.291Z,96.20
2017-10-28T21:58:42.930Z,96.20
2017-10-28T22:01:44.529Z,96.20
2017-10-28T22:04:46.186Z,96.20
2017-10-28T22:07:47.783Z,96.20
2017-10-28T22:10:49.448Z,96.30
2017-10-28T22:13:51.035Z,96.30
2017-10-28T22:16:52.658Z,96.40
2017-10-28T22:19:54.294Z,96.30
2017-10-28T22:22:55.885Z,96.50
2017-10-28T22:25:58.196Z,96.40
2017-10-28T22:28:59.818Z,96.40
2017-10-28T22:32:02.188Z,96.60
2017-10-28T22:35:04.526Z,96.50
2017-10-28T22:38:06.200Z,96.50
2017-10-28T22:41:07.903Z,96.50
2017-10-28T22:44:09.489Z,96.50
2017-10-28T22:47:11.146Z,96.60
2017-10-28T22:50:12.909Z,96.50
2017-10-28T22:53:14.434Z,96.70
2017-10-28T22:56:16.022Z,96.70
2017-10-28T22:59:17.609Z,96.80
2017-10-28T23:02:19.950Z,97.00
2017-10-28T23:05:21.499Z,96.90
2017-10-28T23:08:23.024Z,96.90
2017-10-28T23:11:24.634Z,96.80
2017-10-28T23:14:26.137Z,96.90
2017-10-28T23:17:27.693Z,96.90
2017-10-28T23:20:29.268Z,96.90
2017-10-28T23:23:30.849Z,96.90
2017-10-28T23:26:32.378Z,96.90
2017-10-28T23:29:33.921Z,97.00
2017-10-28T23:32:35.427Z,97.00
2017-10-28T23:35:37.730Z,97.10
2017-10-28T23:38:39.313Z,97.00
2017-10-28T23:41:41.086Z,97.00
2017-10-28T23:44:42.580Z,96.90
2017-10-28T23:47:44.856Z,96.90
2017-10-28T23:50:47.107Z,97.20
2017-10-28T23:53:48.642Z,96.80
2017-10-28T23:56:50.152Z,96.60
2017-10-28T23:59:51.657Z,96.60
